createdAt,value
2024-01-07T00:01:22.656Z,101992.41
2024-01-07T00:04:10.237Z,101993.31
2024-01-07T00:17:34.401Z,102011.00
2024-01-07T00:20:54.639Z,102009.22
2024-01-07T00:27:20.943Z,102020.72
2024-01-07T00:30:59.730Z,102018.91
2024-01-07T00:34:10.029Z,102022.50
2024-01-07T00:40:44.162Z,102027.78
2024-01-07T00:43:47.662Z,102038.41
2024-01-07T00:49:49.665Z,102036.66
2024-01-07T00:53:02.519Z,102031.34
2024-01-07T01:06:07.249Z,102044.63
2024-01-07T01:17:50.183Z,102057.03
2024-01-07T01:24:02.655Z,102057.06
2024-01-07T01:27:09.515Z,102067.63
2024-01-07T01:37:09.396Z,102070.31
2024-01-07T01:40:20.952Z,102078.25
2024-01-07T01:46:18.173Z,102079.13
2024-01-07T01:49:04.675Z,102086.22
2024-01-07T01:51:44.269Z,102095.94
2024-01-07T01:54:45.475Z,102089.72
2024-01-07T01:58:33.393Z,102089.72
2024-01-07T02:01:04.038Z,102102.97
2024-01-07T02:04:13.069Z,102102.09
2024-01-07T02:06:55.782Z,102107.38
2024-01-07T02:09:45.216Z,102112.69
2024-01-07T02:12:35.011Z,102112.72
2024-01-07T02:15:14.576Z,102114.47
2024-01-07T02:17:56.084Z,102116.25
2024-01-07T02:20:25.371Z,102124.22
2024-01-07T02:23:10.898Z,102119.78
2024-01-07T02:25:56.787Z,102127.75
2024-01-07T02:28:37.158Z,102125.09
2024-01-07T02:34:08.203Z,102124.19
2024-01-07T02:37:13.913Z,102127.75
2024-01-07T02:40:01.563Z,102131.28
2024-01-07T02:42:34.554Z,102127.72
2024-01-07T02:45:04.579Z,102129.50
2024-01-07T02:47:45.376Z,102132.16
2024-01-07T02:50:15.004Z,102131.25
2024-01-07T02:53:04.145Z,102134.81
2024-01-07T02:55:30.934Z,102137.47
2024-01-07T02:58:00.602Z,102135.69
2024-01-07T03:00:49.591Z,102133.94
2024-01-07T03:03:21.299Z,102141.00
2024-01-07T03:05:48.317Z,102142.75
2024-01-07T03:08:23.915Z,102145.38
2024-01-07T03:10:58.036Z,102146.28
2024-01-07T03:13:27.841Z,102148.03
2024-01-07T03:15:59.261Z,102152.47
2024-01-07T03:18:29.719Z,102145.41
2024-01-07T03:20:58.900Z,102163.06
2024-01-07T03:23:30.620Z,102163.06
2024-01-07T03:26:06.943Z,102159.56
2024-01-07T03:28:36.356Z,102170.16
2024-01-07T03:31:20.560Z,102170.13
2024-01-07T03:33:47.588Z,102171.03
2024-01-07T03:36:17.730Z,102175.44
2024-01-07T03:38:46.467Z,102173.69
2024-01-07T03:41:22.726Z,102169.25
2024-01-07T03:43:55.192Z,102177.19
2024-01-07T03:46:22.344Z,102179.84
2024-01-07T03:48:49.472Z,102180.72
2024-01-07T03:51:19.758Z,102187.78
2024-01-07T03:53:58.935Z,102192.22
2024-01-07T03:56:32.267Z,102181.59
2024-01-07T03:59:04.754Z,102186.03
2024-01-07T04:01:35.713Z,102196.66
2024-01-07T04:04:09.700Z,102200.19
2024-01-07T04:06:45.545Z,102201.06
2024-01-07T04:09:15.307Z,102202.84
2024-01-07T04:11:43.620Z,102210.78
2024-01-07T04:14:10.561Z,102216.97
2024-01-07T04:16:42.598Z,102213.44
2024-01-07T04:19:12.030Z,102211.66
2024-01-07T04:21:45.952Z,102223.16
2024-01-07T04:24:12.608Z,102227.56
2024-01-07T04:26:39.529Z,102225.81
2024-01-07T04:29:06.440Z,102236.41
2024-01-07T04:31:35.300Z,102232.00
2024-01-07T04:34:04.428Z,102233.75
2024-01-07T04:36:31.357Z,102230.22
2024-01-07T04:39:01.180Z,102241.69
2024-01-07T04:41:28.120Z,102244.34
2024-01-07T04:43:56.196Z,102251.41
2024-01-07T04:46:35.407Z,102249.63
2024-01-07T04:51:53.914Z,102255.84
2024-01-07T04:54:26.213Z,102261.13
2024-01-07T04:56:55.788Z,102262.00
2024-01-07T04:59:25.195Z,102267.31
2024-01-07T05:02:01.966Z,102268.19
2024-01-07T05:04:33.298Z,102275.25
2024-01-07T05:07:03.092Z,102280.56
2024-01-07T05:09:35.870Z,102282.31
2024-01-07T05:12:02.520Z,102290.28
2024-01-07T05:14:34.992Z,102282.31
2024-01-07T05:17:05.214Z,102286.75
2024-01-07T05:19:43.576Z,102294.69
2024-01-07T05:22:17.932Z,102300.88
2024-01-07T05:24:48.570Z,102292.94
2024-01-07T05:27:15.390Z,102296.47
2024-01-07T05:29:47.380Z,102302.63
2024-01-07T05:32:18.769Z,102298.22
2024-01-07T05:34:45.472Z,102305.28
2024-01-07T05:37:17.739Z,102316.75
2024-01-07T05:39:44.622Z,102307.94
2024-01-07T05:42:14.251Z,102317.66
2024-01-07T05:44:41.752Z,102315.88
2024-01-07T05:47:11.759Z,102315.00
2024-01-07T05:49:43.405Z,102324.72
2024-01-07T05:52:10.101Z,102319.41
2024-01-07T05:54:39.894Z,102334.44
2024-01-07T05:57:11.446Z,102334.44
2024-01-07T05:59:38.515Z,102340.59
2024-01-07T06:02:05.309Z,102336.19
2024-01-07T06:04:32.193Z,102345.03
2024-01-07T06:07:04.179Z,102352.09
2024-01-07T06:09:31.059Z,102352.94
2024-01-07T06:12:01.664Z,102345.91
2024-01-07T06:14:39.603Z,102352.09
2024-01-07T06:17:11.415Z,102355.63
2024-01-07T06:19:38.463Z,102355.63
2024-01-07T06:22:07.873Z,102368.00
2024-01-07T06:24:40.561Z,102375.03
2024-01-07T06:27:08.850Z,102373.28
2024-01-07T06:29:35.602Z,102379.41
2024-01-07T06:32:02.746Z,102379.47
2024-01-07T06:34:29.727Z,102381.19
2024-01-07T06:36:56.457Z,102391.81
2024-01-07T06:39:28.676Z,102390.94
2024-01-07T06:41:56.038Z,102397.06
2024-01-07T06:44:22.826Z,102405.06
2024-01-07T06:46:49.519Z,102402.38
2024-01-07T06:49:19.120Z,102400.59
2024-01-07T06:51:47.353Z,102409.44
2024-01-07T06:54:15.307Z,102412.97
2024-01-07T06:56:42.218Z,102416.50
2024-01-07T06:59:14.563Z,102409.41
2024-01-07T07:01:44.218Z,102418.25
2024-01-07T07:04:13.954Z,102427.09
2024-01-07T07:06:43.621Z,102436.78
2024-01-07T07:09:15.386Z,102443.84
2024-01-07T07:11:42.453Z,102437.66
2024-01-07T07:14:19.498Z,102442.06
2024-01-07T07:16:45.948Z,102442.94
2024-01-07T07:19:15.775Z,102448.25
2024-01-07T07:21:42.408Z,102450.03
2024-01-07T07:24:08.710Z,102461.53
2024-01-07T07:26:37.082Z,102464.19
2024-01-07T07:29:05.925Z,102466.84
2024-01-07T07:34:41.137Z,102467.69
2024-01-07T07:37:07.861Z,102472.97
2024-01-07T07:39:40.217Z,102468.53
2024-01-07T07:42:06.986Z,102482.66
2024-01-07T07:44:33.426Z,102480.03
2024-01-07T07:47:25.406Z,102488.88
2024-01-07T07:49:52.287Z,102492.38
2024-01-07T07:52:23.260Z,102502.13
2024-01-07T07:54:50.643Z,102513.59
2024-01-07T07:57:23.246Z,102516.25
2024-01-07T08:00:26.349Z,102520.63
2024-01-07T08:06:12.325Z,102527.63
2024-01-07T08:08:57.896Z,102540.84
2024-01-07T08:12:03.641Z,102539.06
2024-01-07T08:28:52.558Z,102561.09
2024-01-07T08:34:53.730Z,102566.47
2024-01-07T13:44:38.855Z,102805.84
2024-01-07T13:47:29.428Z,102805.84
2024-01-07T14:10:06.439Z,102818.41
2024-01-07T15:04:29.002Z,102927.41
2024-01-07T16:44:40.245Z,103043.16
2024-01-07T16:54:38.233Z,103053.69
2024-01-07T17:22:52.903Z,103078.03
2024-01-07T17:28:42.674Z,103087.63
2024-01-07T17:31:27.097Z,103095.44
2024-01-07T17:34:47.727Z,103099.00
2024-01-07T17:38:00.691Z,103091.97
2024-01-07T17:47:21.083Z,103108.59
2024-01-07T17:49:50.772Z,103107.56
2024-01-07T17:52:28.467Z,103109.28
2024-01-07T17:54:57.888Z,103121.63
2024-01-07T18:01:31.842Z,103123.44
2024-01-07T18:06:32.517Z,103131.41
2024-01-07T18:14:18.372Z,103141.00
2024-01-07T18:45:13.457Z,103179.16
2024-01-07T21:01:40.508Z,103249.69
